Daikoku — JD3247 — position and weather

sailwx.info

Track history (hours):
 
Tides and Currents Weather Stations Pressure Air Temp Water Temp Dewpoint Dewpoint Depression Visibility Wind Speed Wind Dir Waves Ship Positions

Daikoku

Last reported at 2015-Jul-29 15:33 UTC. Time now 2015-Jul-29 16:00 UTC.
Position N 33°39' E 130°24'.

Length 95 m; draft 3.5 m.

Type: Cargo ship. MMSI: 431003009.

Date/timePositionNaut miles runAvg speedWind from/ knotsBaromVisibWave heightAir tempDewpointWater temp
2015-Jul-29 15:33N 33°39' E 130°24'8 7.6
2015-Jul-29 14:34N 33°40' E 130°15'4 3.6
2015-Jul-29 13:33N 33°43' E 130°16'  
2015-Jul-24 09:33N 33°49' E 130°20'1010.5
2015-Jul-24 08:33N 33°39' E 130°19'5 4.8
2015-Jul-24 07:33N 33°39' E 130°25'0 0.0
2015-Jul-24 06:33N 33°39' E 130°25'6 6.0
2015-Jul-24 05:33N 33°39' E 130°17'23811.7
2015-Jul-23 09:13N 34°37' E 134°56'710.7
2015-Jul-23 08:33N 34°36' E 135°05'1010.2
2015-Jul-23 07:33N 34°41' E 135°16'1 0.7
2015-Jul-23 06:15N 34°41' E 135°17'2 3.2
2015-Jul-23 05:33N 34°39' E 135°16'1 1.0
2015-Jul-23 04:16N 34°39' E 135°15'2 2.1
2015-Jul-23 03:33N 34°38' E 135°16'1 1.2
2015-Jul-23 02:25N 34°37' E 135°16'0 0.0
2015-Jul-23 01:31N 34°37' E 135°16'0 0.0
2015-Jul-23 00:31N 34°37' E 135°16'0 0.0
2015-Jul-22 23:31N 34°37' E 135°16'0 0.0
2015-Jul-22 22:31N 34°37' E 135°16'0 0.1
2015-Jul-22 21:31N 34°37' E 135°16'0 0.0
2015-Jul-22 20:31N 34°37' E 135°15'0 0.0
2015-Jul-22 19:31N 34°37' E 135°15'0 0.0
2015-Jul-22 18:31N 34°37' E 135°15'0 0.0
2015-Jul-22 17:31N 34°37' E 135°16'0 0.0
2015-Jul-22 16:25N 34°37' E 135°16'8 9.1
2015-Jul-22 15:33N 34°34' E 135°07'9 9.1
2015-Jul-22 14:33N 34°36' E 134°56'  
Track history (hours):
 
Tides and Currents Weather Stations Pressure Air Temp Water Temp Dewpoint Dewpoint Depression Visibility Wind Speed Wind Dir Waves Ship Positions

Daikoku

Last reported at 2015-Jul-29 15:33 UTC. Time now 2015-Jul-29 16:00 UTC.
Position N 33°39' E 130°24'.

Length 95 m; draft 3.5 m.

Type: Cargo ship. MMSI: 431003009.

Date/timePositionNaut miles runAvg speedWind from/ knotsBaromVisibWave heightAir tempDewpointWater temp
2015-Jul-29 15:33N 33°39' E 130°24'8 7.6
2015-Jul-29 14:34N 33°40' E 130°15'4 3.6
2015-Jul-29 13:33N 33°43' E 130°16'  
2015-Jul-24 09:33N 33°49' E 130°20'1010.5
2015-Jul-24 08:33N 33°39' E 130°19'5 4.8
2015-Jul-24 07:33N 33°39' E 130°25'0 0.0
2015-Jul-24 06:33N 33°39' E 130°25'6 6.0
2015-Jul-24 05:33N 33°39' E 130°17'23811.7
2015-Jul-23 09:13N 34°37' E 134°56'710.7
2015-Jul-23 08:33N 34°36' E 135°05'1010.2
2015-Jul-23 07:33N 34°41' E 135°16'1 0.7
2015-Jul-23 06:15N 34°41' E 135°17'2 3.2
2015-Jul-23 05:33N 34°39' E 135°16'1 1.0
2015-Jul-23 04:16N 34°39' E 135°15'2 2.1
2015-Jul-23 03:33N 34°38' E 135°16'1 1.2
2015-Jul-23 02:25N 34°37' E 135°16'0 0.0
2015-Jul-23 01:31N 34°37' E 135°16'0 0.0
2015-Jul-23 00:31N 34°37' E 135°16'0 0.0
2015-Jul-22 23:31N 34°37' E 135°16'0 0.0
2015-Jul-22 22:31N 34°37' E 135°16'0 0.1
2015-Jul-22 21:31N 34°37' E 135°16'0 0.0
2015-Jul-22 20:31N 34°37' E 135°15'0 0.0
2015-Jul-22 19:31N 34°37' E 135°15'0 0.0
2015-Jul-22 18:31N 34°37' E 135°15'0 0.0
2015-Jul-22 17:31N 34°37' E 135°16'0 0.0
2015-Jul-22 16:25N 34°37' E 135°16'8 9.1
2015-Jul-22 15:33N 34°34' E 135°07'9 9.1
2015-Jul-22 14:33N 34°36' E 134°56'  

Dump ship's entire track history